Time;durP1;ratioP1;P1;durP2;ratioP2;P2;SDS_P1;SDS_P2;PMS_P1;PMS_P2;Temp;Humidity;BMP_temperature;BMP_pressure;BME280_temperature;BME280_humidity;BME280_pressure;Samples;Min_cycle;Max_cycle;Signal;HPM_P1;HPM_P2
2023/10/13 00:01:23;;;;;;;36.25;6.80;;;;;;;;;;4980417;28;20050;-59
2023/10/13 00:03:54;;;;;;;35.15;7.90;;;;;;;;;;4966389;28;20452;-59
2023/10/13 00:06:20;;;;;;;31.67;9.68;;;;;;;;;;4962585;28;20125;-59
2023/10/13 00:08:48;;;;;;;32.13;7.05;;;;;;;;;;4983952;28;20050;-59
2023/10/13 00:11:15;;;;;;;63.00;9.05;;;;;;;;;;4967598;28;20093;-59
2023/10/13 00:13:51;;;;;;;32.17;6.50;;;;;;;;;;4961422;28;20051;-60
2023/10/13 00:16:21;;;;;;;22.80;6.72;;;;;;;;;;4982385;28;20046;-59
2023/10/13 00:18:50;;;;;;;31.40;6.53;;;;;;;;;;4981903;28;20126;-60
2023/10/13 00:21:30;;;;;;;39.55;6.53;;;;;;;;;;4966787;28;20047;-59
2023/10/13 00:23:59;;;;;;;33.17;6.88;;;;;;;;;;4979526;28;20050;-60
2023/10/13 00:26:30;;;;;;;36.85;7.15;;;;;;;;;;4964913;28;20047;-59
2023/10/13 00:29:18;;;;;;;56.22;7.55;;;;;;;;;;4983615;28;20070;-60
2023/10/13 00:31:48;;;;;;;28.40;6.20;;;;;;;;;;4982793;28;20447;-60
2023/10/13 00:34:19;;;;;;;25.73;5.10;;;;;;;;;;4967609;28;20046;-59
2023/10/13 00:36:49;;;;;;;41.33;6.57;;;;;;;;;;4981211;28;20444;-60
2023/10/13 00:39:16;;;;;;;31.98;5.97;;;;;;;;;;4966281;28;20061;-62
2023/10/13 00:41:52;;;;;;;38.50;6.10;;;;;;;;;;4964797;28;20492;-60
2023/10/13 00:44:28;;;;;;;42.55;6.03;;;;;;;;;;4964852;28;20042;-60
2023/10/13 00:46:56;;;;;;;35.15;7.00;;;;;;;;;;4965911;28;20411;-60
2023/10/13 00:49:23;;;;;;;42.00;6.47;;;;;;;;;;4973123;28;20051;-60
2023/10/13 00:51:50;;;;;;;34.40;5.97;;;;;;;;;;4981076;28;20063;-59
2023/10/13 00:54:18;;;;;;;25.63;5.35;;;;;;;;;;4962847;28;20056;-60
2023/10/13 00:56:57;;;;;;;33.65;5.72;;;;;;;;;;4967085;28;20049;-60
2023/10/13 00:59:25;;;;;;;21.23;5.40;;;;;;;;;;4964451;28;20679;-59
2023/10/13 01:01:55;;;;;;;30.00;4.95;;;;;;;;;;4984370;28;20484;-59
2023/10/13 01:04:28;;;;;;;32.85;5.20;;;;;;;;;;4965608;28;20054;-60
2023/10/13 01:06:55;;;;;;;32.83;5.63;;;;;;;;;;4960982;28;20419;-60
2023/10/13 01:09:24;;;;;;;33.47;5.13;;;;;;;;;;4981887;28;20069;-61
2023/10/13 01:11:55;;;;;;;37.80;6.47;;;;;;;;;;4963601;28;20101;-59
2023/10/13 01:14:27;;;;;;;34.60;6.15;;;;;;;;;;4964191;28;20082;-59
2023/10/13 01:16:55;;;;;;;35.50;5.55;;;;;;;;;;4984584;28;20050;-60
2023/10/13 01:19:24;;;;;;;29.17;5.15;;;;;;;;;;4974791;28;20411;-59
2023/10/13 01:22:01;;;;;;;26.15;5.28;;;;;;;;;;4967520;28;20480;-60
2023/10/13 01:24:34;;;;;;;35.30;6.00;;;;;;;;;;4951211;28;20522;-59
2023/10/13 01:27:17;;;;;;;36.85;5.95;;;;;;;;;;4968068;28;20476;-60
2023/10/13 01:29:50;;;;;;;27.00;5.07;;;;;;;;;;4963977;28;20597;-60
2023/10/13 01:32:18;;;;;;;43.60;5.90;;;;;;;;;;4963665;28;20113;-60
2023/10/13 01:34:47;;;;;;;42.17;6.57;;;;;;;;;;4986570;28;20105;-60
2023/10/13 01:37:15;;;;;;;27.25;4.78;;;;;;;;;;4982304;28;20492;-59
2023/10/13 01:39:47;;;;;;;32.13;5.30;;;;;;;;;;4979061;28;20551;-59
2023/10/13 01:42:21;;;;;;;25.85;5.50;;;;;;;;;;4979535;28;20097;-60
2023/10/13 01:44:49;;;;;;;31.35;5.22;;;;;;;;;;4947239;28;20034;-61
2023/10/13 01:47:18;;;;;;;41.10;6.07;;;;;;;;;;4981126;28;20061;-59
2023/10/13 01:49:50;;;;;;;40.45;5.72;;;;;;;;;;4969674;28;20514;-60
2023/10/13 01:52:17;;;;;;;34.55;5.45;;;;;;;;;;4949460;28;20050;-59
2023/10/13 01:54:45;;;;;;;24.80;5.28;;;;;;;;;;4979721;28;20043;-60
2023/10/13 01:57:17;;;;;;;36.70;6.25;;;;;;;;;;4983584;28;20039;-59
2023/10/13 01:59:45;;;;;;;31.08;6.55;;;;;;;;;;4952795;28;20050;-59
2023/10/13 02:20:41;;;;;;;29.30;5.50;;;;;;;;;;517267;26;20323;-55
2023/10/13 02:23:10;;;;;;;75.05;8.75;;;;;;;;;;4964108;28;20050;-53
2023/10/13 02:25:43;;;;;;;19.48;5.35;;;;;;;;;;4982513;28;20051;-56
2023/10/13 02:28:13;;;;;;;25.60;5.18;;;;;;;;;;4984417;28;20046;-51
2023/10/13 02:30:44;;;;;;;20.02;4.85;;;;;;;;;;4964023;28;20078;-56
2023/10/13 02:33:12;;;;;;;23.65;6.53;;;;;;;;;;4965275;28;20452;-55
2023/10/13 02:35:43;;;;;;;38.38;6.53;;;;;;;;;;4962865;28;20042;-54
2023/10/13 02:38:13;;;;;;;74.88;7.47;;;;;;;;;;4982273;28;20045;-58
2023/10/13 02:40:40;;;;;;;26.08;4.78;;;;;;;;;;4992761;28;20416;-51
2023/10/13 02:43:07;;;;;;;23.48;5.18;;;;;;;;;;4979517;28;20058;-56
2023/10/13 02:45:37;;;;;;;24.63;5.03;;;;;;;;;;4980878;28;20046;-55
2023/10/13 02:48:17;;;;;;;42.28;5.72;;;;;;;;;;4964216;28;20042;-55
2023/10/13 02:50:45;;;;;;;31.10;5.32;;;;;;;;;;4966368;28;20138;-56
2023/10/13 02:53:12;;;;;;;75.25;7.85;;;;;;;;;;4963406;28;20113;-52
2023/10/13 02:55:49;;;;;;;24.15;6.28;;;;;;;;;;4983043;28;20093;-58
2023/10/13 02:58:16;;;;;;;27.90;5.13;;;;;;;;;;4966751;28;20058;-54
2023/10/13 03:00:44;;;;;;;31.25;5.38;;;;;;;;;;4981925;28;20042;-55
2023/10/13 03:03:14;;;;;;;30.73;4.63;;;;;;;;;;4982018;28;20452;-48
2023/10/13 03:05:42;;;;;;;28.48;5.70;;;;;;;;;;4993642;28;20478;-54
2023/10/13 03:08:10;;;;;;;59.08;7.03;;;;;;;;;;4982611;28;20047;-50
2023/10/13 03:10:45;;;;;;;34.17;5.80;;;;;;;;;;4981007;28;20062;-53
2023/10/13 03:13:12;;;;;;;29.73;5.85;;;;;;;;;;4945658;28;20065;-55
2023/10/13 03:15:39;;;;;;;21.05;5.25;;;;;;;;;;4978698;28;20035;-55
2023/10/13 03:18:05;;;;;;;30.70;6.50;;;;;;;;;;4977841;28;20047;-57
2023/10/13 03:20:32;;;;;;;25.88;6.20;;;;;;;;;;4962314;28;20045;-51
2023/10/13 03:22:59;;;;;;;39.67;6.85;;;;;;;;;;4960947;28;20051;-56
2023/10/13 03:25:29;;;;;;;37.42;6.28;;;;;;;;;;4963731;28;20047;-55
2023/10/13 03:30:46;;;;;;;30.08;6.13;;;;;;;;;;4941928;28;20078;-55
2023/10/13 03:33:14;;;;;;;34.67;6.70;;;;;;;;;;4944619;28;20493;-56
2023/10/13 03:35:42;;;;;;;33.17;6.28;;;;;;;;;;4966301;28;20436;-52
2023/10/13 03:38:18;;;;;;;68.63;8.30;;;;;;;;;;4967598;28;20062;-53
2023/10/13 03:40:48;;;;;;;27.58;5.72;;;;;;;;;;4970994;28;20046;-56
2023/10/13 03:43:21;;;;;;;33.78;7.60;;;;;;;;;;4967227;28;20042;-52
2023/10/13 03:45:52;;;;;;;26.83;6.30;;;;;;;;;;4967869;28;20390;-57
2023/10/13 03:51:14;;;;;;;44.95;8.23;;;;;;;;;;4963728;28;20039;-52
2023/10/13 03:53:54;;;;;;;54.35;9.10;;;;;;;;;;4965387;28;20459;-56
2023/10/13 03:56:28;;;;;;;40.90;8.65;;;;;;;;;;4961188;28;20097;-58
2023/10/13 04:04:37;;;;;;;37.65;8.27;;;;;;;;;;4962838;28;20043;-54
2023/10/13 04:17:22;;;;;;;53.83;8.23;;;;;;;;;;4965111;28;20099;-54
2023/10/13 04:26:04;;;;;;;27.17;6.80;;;;;;;;;;4981857;28;20464;-56
2023/10/13 04:28:34;;;;;;;31.77;7.47;;;;;;;;;;4983306;28;20038;-52
2023/10/13 04:31:24;;;;;;;29.50;7.40;;;;;;;;;;4966543;28;20057;-54
2023/10/13 04:34:00;;;;;;;47.58;8.82;;;;;;;;;;4981945;28;20042;-55
2023/10/13 04:41:57;;;;;;;35.65;9.32;;;;;;;;;;4982949;28;20035;-51
2023/10/13 04:47:17;;;;;;;86.03;10.82;;;;;;;;;;4983715;28;20082;-50
2023/10/13 04:52:37;;;;;;;46.65;8.80;;;;;;;;;;4985155;28;20039;-58
2023/10/13 04:55:16;;;;;;;33.10;8.40;;;;;;;;;;4981897;28;20086;-58
2023/10/13 05:03:52;;;;;;;63.40;9.90;;;;;;;;;;4905974;29;20139;-58
2023/10/13 05:45:40;;;;;;;61.30;10.60;;;;;;;;;;4943471;29;20051;-54
2023/10/13 05:48:15;;;;;;;43.45;11.32;;;;;;;;;;4943577;28;20061;-56
2023/10/13 05:51:32;;;;;;;57.97;12.35;;;;;;;;;;4942220;29;20097;-56
2023/10/13 06:29:25;;;;;;;48.38;10.52;;;;;;;;;;4982038;28;20042;-52
2023/10/13 06:31:51;;;;;;;42.15;8.93;;;;;;;;;;4982377;28;20117;-51
2023/10/13 06:34:21;;;;;;;36.95;9.45;;;;;;;;;;4978298;28;20051;-58
2023/10/13 06:36:48;;;;;;;47.40;8.27;;;;;;;;;;4983307;28;20109;-51
2023/10/13 06:42:02;;;;;;;35.95;7.60;;;;;;;;;;4982659;28;20034;-57
2023/10/13 06:44:32;;;;;;;28.83;7.63;;;;;;;;;;4980651;28;20133;-57
2023/10/13 06:47:03;;;;;;;25.73;6.93;;;;;;;;;;4984689;28;20042;-55
2023/10/13 06:49:38;;;;;;;32.78;7.15;;;;;;;;;;4984960;28;20414;-54
2023/10/13 06:52:06;;;;;;;32.17;7.78;;;;;;;;;;4988087;28;20101;-54
2023/10/13 06:54:37;;;;;;;28.30;6.70;;;;;;;;;;4981013;28;20381;-53
2023/10/13 06:57:06;;;;;;;38.58;8.00;;;;;;;;;;4963901;28;20038;-52
2023/10/13 06:59:36;;;;;;;31.60;7.38;;;;;;;;;;4981962;28;20049;-58
2023/10/13 07:02:06;;;;;;;43.65;7.82;;;;;;;;;;4985484;28;20047;-59
2023/10/13 07:05:03;;;;;;;38.80;6.85;;;;;;;;;;4982830;28;20119;-51
2023/10/13 07:07:30;;;;;;;20.35;6.18;;;;;;;;;;4983809;28;20133;-49
2023/10/13 07:09:58;;;;;;;24.90;6.70;;;;;;;;;;4983652;28;20403;-55
2023/10/13 07:12:33;;;;;;;24.98;5.43;;;;;;;;;;4989519;28;20660;-57
2023/10/13 07:15:10;;;;;;;27.02;6.40;;;;;;;;;;4983682;28;20049;-54
2023/10/13 07:17:40;;;;;;;25.17;6.25;;;;;;;;;;4984684;28;20460;-56
2023/10/13 07:23:04;;;;;;;32.63;6.78;;;;;;;;;;4960938;28;20141;-56
2023/10/13 07:25:37;;;;;;;26.10;6.97;;;;;;;;;;4984190;28;20409;-49
2023/10/13 07:28:04;;;;;;;;;;;;;;;;;;4987350;28;20373;-55
2023/10/13 07:30:39;;;;;;;36.00;8.00;;;;;;;;;;4964603;28;19945;-56
2023/10/13 07:33:06;;;;;;;41.83;8.27;;;;;;;;;;4983354;28;20043;-54
2023/10/13 07:35:35;;;;;;;38.53;8.23;;;;;;;;;;4976090;28;20061;-55
2023/10/13 07:38:06;;;;;;;36.72;8.05;;;;;;;;;;4987164;28;20074;-55
2023/10/13 07:43:09;;;;;;;21.23;6.57;;;;;;;;;;4983861;28;20053;-53
2023/10/13 07:45:40;;;;;;;23.67;6.60;;;;;;;;;;4980011;28;20571;-58
2023/10/13 07:48:20;;;;;;;29.25;8.15;;;;;;;;;;4986600;28;20395;-55
2023/10/13 07:50:48;;;;;;;36.15;7.95;;;;;;;;;;4981731;28;20047;-54
2023/10/13 07:53:24;;;;;;;69.60;9.25;;;;;;;;;;4983532;28;20046;-60
2023/10/13 07:56:02;;;;;;;90.40;10.35;;;;;;;;;;4984901;28;20050;-50
2023/10/13 07:58:31;;;;;;;23.02;7.35;;;;;;;;;;4981170;28;20444;-52
2023/10/13 08:03:44;;;;;;;33.40;6.50;;;;;;;;;;4982485;28;20093;-54
2023/10/13 08:08:38;;;;;;;29.48;7.05;;;;;;;;;;4986415;28;20051;-54
2023/10/13 08:11:24;;;;;;;53.70;8.25;;;;;;;;;;4983334;28;20482;-53
2023/10/13 08:17:09;;;;;;;67.47;9.20;;;;;;;;;;4901931;29;20108;-55
2023/10/13 08:43:08;;;;;;;24.30;6.78;;;;;;;;;;4899774;29;20051;-53
2023/10/13 08:56:05;;;;;;;28.52;7.70;;;;;;;;;;4982561;28;20043;-57
2023/10/13 09:01:59;;;;;;;39.60;8.23;;;;;;;;;;4983436;28;20493;-57
2023/10/13 09:04:35;;;;;;;37.58;7.53;;;;;;;;;;4980608;28;20043;-57
2023/10/13 09:07:08;;;;;;;28.77;6.75;;;;;;;;;;4979972;28;20061;-52
2023/10/13 09:09:59;;;;;;;33.83;5.65;;;;;;;;;;4979004;28;20472;-52
2023/10/13 09:17:42;;;;;;;37.05;5.72;;;;;;;;;;4984421;28;20472;-56
2023/10/13 09:23:45;;;;;;;40.92;6.35;;;;;;;;;;4981836;28;20058;-57
2023/10/13 09:25:57;;;;;;;27.27;5.50;;;;;;;;;;4966524;28;20051;-56
2023/10/13 09:28:28;;;;;;;34.42;5.57;;;;;;;;;;4983482;28;20053;-49
2023/10/13 09:30:58;;;;;;;38.92;6.05;;;;;;;;;;4979837;28;20144;-56
2023/10/13 09:33:33;;;;;;;31.55;5.63;;;;;;;;;;4980133;28;20049;-55
2023/10/13 09:36:00;;;;;;;30.88;6.57;;;;;;;;;;4981388;28;20130;-56
2023/10/13 09:38:27;;;;;;;54.00;9.13;;;;;;;;;;4981723;28;20117;-56
2023/10/13 09:40:57;;;;;;;39.17;6.40;;;;;;;;;;4967250;28;20046;-53
2023/10/13 09:43:26;;;;;;;39.08;5.55;;;;;;;;;;4982280;28;20038;-54
2023/10/13 09:46:17;;;;;;;37.83;6.30;;;;;;;;;;4981045;28;20510;-59
2023/10/13 09:48:52;;;;;;;18.90;4.70;;;;;;;;;;4977562;28;20074;-57
2023/10/13 09:51:22;;;;;;;41.75;5.93;;;;;;;;;;4982233;28;20047;-55
2023/10/13 09:53:58;;;;;;;40.58;6.28;;;;;;;;;;4980532;28;20424;-54
2023/10/13 09:56:54;;;;;;;41.15;6.18;;;;;;;;;;4980827;28;20480;-53
2023/10/13 09:59:34;;;;;;;125.72;11.15;;;;;;;;;;4981570;28;20104;-56
2023/10/13 10:02:08;;;;;;;31.50;5.70;;;;;;;;;;4986278;28;20106;-51
2023/10/13 10:04:41;;;;;;;27.95;4.68;;;;;;;;;;4981287;28;20496;-49
2023/10/13 10:07:08;;;;;;;34.25;5.40;;;;;;;;;;4981552;28;20038;-59
2023/10/13 10:09:37;;;;;;;30.92;6.03;;;;;;;;;;4978246;28;20046;-53
2023/10/13 10:12:11;;;;;;;28.45;5.75;;;;;;;;;;4980783;28;20073;-55
2023/10/13 10:14:41;;;;;;;29.25;5.47;;;;;;;;;;4965408;28;20074;-48
2023/10/13 10:17:08;;;;;;;62.65;7.68;;;;;;;;;;4987710;28;20042;-58
2023/10/13 10:19:48;;;;;;;35.72;6.18;;;;;;;;;;4983307;28;20130;-56
2023/10/13 10:22:36;;;;;;;59.90;8.75;;;;;;;;;;4978982;28;20074;-51
2023/10/13 10:25:22;;;;;;;48.00;6.20;;;;;;;;;;4980081;28;20031;-55
2023/10/13 10:27:56;;;;;;;27.38;5.32;;;;;;;;;;4983079;28;20039;-53
2023/10/13 10:30:26;;;;;;;43.97;7.00;;;;;;;;;;4980814;28;20054;-56
2023/10/13 10:33:00;;;;;;;39.90;6.25;;;;;;;;;;4980213;28;20086;-55
2023/10/13 10:35:32;;;;;;;83.40;9.82;;;;;;;;;;4980965;28;20093;-54
2023/10/13 10:40:56;;;;;;;34.35;6.30;;;;;;;;;;4983559;28;20038;-53
2023/10/13 10:43:28;;;;;;;44.47;7.10;;;;;;;;;;4994279;28;20057;-54
2023/10/13 10:45:59;;;;;;;33.97;5.38;;;;;;;;;;4981536;28;20126;-49
2023/10/13 10:48:33;;;;;;;33.75;7.40;;;;;;;;;;4977376;28;20057;-56
2023/10/13 10:51:06;;;;;;;16.10;5.35;;;;;;;;;;4983995;28;20052;-53
2023/10/13 10:53:34;;;;;;;32.33;6.40;;;;;;;;;;4995303;28;20050;-55
2023/10/13 10:56:05;;;;;;;28.05;6.90;;;;;;;;;;4982612;28;20047;-56
2023/10/13 10:58:43;;;;;;;35.47;6.07;;;;;;;;;;4978909;28;20492;-54
2023/10/13 11:01:11;;;;;;;42.22;6.40;;;;;;;;;;4977193;28;20038;-54
2023/10/13 11:03:41;;;;;;;32.30;5.78;;;;;;;;;;4981209;28;20046;-57
2023/10/13 11:06:19;;;;;;;31.65;5.57;;;;;;;;;;4980518;28;20049;-58
2023/10/13 11:08:51;;;;;;;38.13;5.80;;;;;;;;;;4979843;28;20050;-58
2023/10/13 11:11:35;;;;;;;84.38;8.52;;;;;;;;;;4980071;28;20060;-54
2023/10/13 11:14:17;;;;;;;36.70;5.28;;;;;;;;;;4995326;28;20554;-54
2023/10/13 11:16:50;;;;;;;26.10;6.15;;;;;;;;;;4983683;28;20051;-52
2023/10/13 11:19:20;;;;;;;34.33;5.00;;;;;;;;;;4981941;28;20034;-55
2023/10/13 11:21:50;;;;;;;33.05;5.85;;;;;;;;;;4977350;28;20055;-55
2023/10/13 11:24:17;;;;;;;37.40;5.95;;;;;;;;;;4978636;28;20416;-55
2023/10/13 11:26:50;;;;;;;41.67;6.50;;;;;;;;;;4979423;28;20122;-57
2023/10/13 11:29:20;;;;;;;64.67;7.23;;;;;;;;;;4981431;28;20054;-52
2023/10/13 11:31:54;;;;;;;25.67;5.43;;;;;;;;;;4965256;28;20082;-56
2023/10/13 11:34:21;;;;;;;68.90;8.68;;;;;;;;;;4979091;28;20476;-53
2023/10/13 11:36:48;;;;;;;50.55;7.55;;;;;;;;;;4977389;28;20047;-54
2023/10/13 11:39:22;;;;;;;65.68;7.45;;;;;;;;;;4965006;28;20456;-58
2023/10/13 11:41:55;;;;;;;36.00;5.50;;;;;;;;;;4979183;28;20093;-58
2023/10/13 11:46:55;;;;;;;24.90;4.85;;;;;;;;;;4980186;28;20050;-55
2023/10/13 11:52:09;;;;;;;34.60;4.82;;;;;;;;;;4983922;28;20125;-52
2023/10/13 11:54:41;;;;;;;27.73;5.60;;;;;;;;;;4985361;28;20089;-52
2023/10/13 11:57:09;;;;;;;28.08;5.30;;;;;;;;;;4984973;28;20063;-57
2023/10/13 11:59:45;;;;;;;32.42;5.10;;;;;;;;;;4966090;28;20054;-57
2023/10/13 12:05:03;;;;;;;24.15;5.13;;;;;;;;;;4985813;28;20775;-52
2023/10/13 12:07:45;;;;;;;29.58;5.32;;;;;;;;;;4976012;28;20038;-56
2023/10/13 12:10:16;;;;;;;32.95;5.15;;;;;;;;;;4984482;28;20038;-55
2023/10/13 12:12:46;;;;;;;101.78;8.63;;;;;;;;;;4979912;28;20056;-52
2023/10/13 12:15:25;;;;;;;55.92;7.53;;;;;;;;;;4985787;28;20702;-49
2023/10/13 12:17:52;;;;;;;39.92;5.70;;;;;;;;;;4985700;28;20046;-54
2023/10/13 12:20:32;;;;;;;54.50;6.97;;;;;;;;;;4983189;28;20444;-62
2023/10/13 12:23:09;;;;;;;28.35;5.45;;;;;;;;;;4964599;28;20059;-54
2023/10/13 12:25:57;;;;;;;92.32;8.88;;;;;;;;;;4981041;28;20054;-56
2023/10/13 12:28:26;;;;;;;29.95;5.43;;;;;;;;;;4984840;28;20053;-56
2023/10/13 12:30:54;;;;;;;40.55;6.47;;;;;;;;;;4982862;28;20074;-62
2023/10/13 12:33:24;;;;;;;46.67;7.10;;;;;;;;;;4965957;28;20481;-61
2023/10/13 12:36:09;;;;;;;35.25;5.65;;;;;;;;;;4984075;28;20476;-56
2023/10/13 12:38:37;;;;;;;31.75;5.20;;;;;;;;;;4982824;28;20468;-57
2023/10/13 12:52:19;;;;;;;29.52;4.72;;;;;;;;;;4982807;28;20050;-50
2023/10/13 12:55:05;;;;;;;21.75;4.70;;;;;;;;;;4981573;28;20049;-56
2023/10/13 12:57:32;;;;;;;35.28;5.65;;;;;;;;;;4983245;28;20068;-57
2023/10/13 12:59:59;;;;;;;35.03;5.90;;;;;;;;;;4982357;28;20049;-57
2023/10/13 13:02:26;;;;;;;51.17;7.10;;;;;;;;;;4986644;28;20053;-57
2023/10/13 13:04:56;;;;;;;36.08;11.57;;;;;;;;;;4991500;28;20053;-58
2023/10/13 13:07:29;;;;;;;50.65;7.25;;;;;;;;;;4985166;28;20030;-56
2023/10/13 13:09:59;;;;;;;26.48;5.82;;;;;;;;;;4980629;28;20058;-56
2023/10/13 13:12:29;;;;;;;61.42;6.93;;;;;;;;;;4985468;28;20038;-58
2023/10/13 13:14:56;;;;;;;45.28;6.47;;;;;;;;;;4984074;28;20070;-56
2023/10/13 13:17:22;;;;;;;80.57;8.32;;;;;;;;;;4982851;28;20046;-53
2023/10/13 13:19:49;;;;;;;39.13;6.53;;;;;;;;;;4987478;28;20054;-57
2023/10/13 13:22:17;;;;;;;41.55;6.68;;;;;;;;;;4982741;28;20050;-57
2023/10/13 13:24:45;;;;;;;44.20;6.65;;;;;;;;;;4979312;28;20090;-56
2023/10/13 13:27:17;;;;;;;57.70;7.53;;;;;;;;;;4988176;28;20046;-57
2023/10/13 13:29:44;;;;;;;43.20;6.80;;;;;;;;;;4981882;28;20047;-56
2023/10/13 13:32:17;;;;;;;46.00;7.40;;;;;;;;;;4984000;28;20057;-56
2023/10/13 13:34:44;;;;;;;27.88;5.90;;;;;;;;;;4981464;28;20049;-57
2023/10/13 13:37:14;;;;;;;44.65;7.05;;;;;;;;;;4978681;28;20510;-55
2023/10/13 13:39:45;;;;;;;58.17;7.10;;;;;;;;;;4985452;28;20093;-53
2023/10/13 13:42:17;;;;;;;81.30;7.88;;;;;;;;;;4985216;28;20038;-51
2023/10/13 13:44:46;;;;;;;31.63;6.00;;;;;;;;;;4981065;28;20130;-48
2023/10/13 13:47:13;;;;;;;72.72;8.30;;;;;;;;;;4964716;28;20058;-57
2023/10/13 13:49:46;;;;;;;32.17;5.72;;;;;;;;;;4979763;28;20043;-56
2023/10/13 13:52:17;;;;;;;36.60;6.53;;;;;;;;;;4984519;28;20053;-54
2023/10/13 13:54:44;;;;;;;28.20;5.78;;;;;;;;;;4983823;28;20038;-54
2023/10/13 13:57:13;;;;;;;34.88;7.07;;;;;;;;;;4984205;28;20046;-53
2023/10/13 13:59:43;;;;;;;59.50;8.13;;;;;;;;;;4983678;28;20543;-55
2023/10/13 14:02:19;;;;;;;54.08;8.13;;;;;;;;;;4984359;28;20050;-58
2023/10/13 14:04:50;;;;;;;70.13;8.02;;;;;;;;;;4987235;28;20046;-59
2023/10/13 14:07:19;;;;;;;39.95;6.40;;;;;;;;;;4981917;28;20048;-58
2023/10/13 14:09:51;;;;;;;43.95;6.45;;;;;;;;;;4978856;28;20046;-56
2023/10/13 14:12:41;;;;;;;55.97;7.45;;;;;;;;;;4968320;28;20047;-57
2023/10/13 14:15:19;;;;;;;32.63;6.38;;;;;;;;;;4984015;28;20034;-53
2023/10/13 14:17:49;;;;;;;39.83;6.78;;;;;;;;;;4982430;28;20043;-56
2023/10/13 14:20:18;;;;;;;69.57;9.70;;;;;;;;;;4982098;28;20435;-56
2023/10/13 14:22:48;;;;;;;32.90;6.30;;;;;;;;;;4984077;28;20077;-59
2023/10/13 14:25:15;;;;;;;42.80;7.50;;;;;;;;;;4980841;28;20544;-55
2023/10/13 14:27:43;;;;;;;52.28;9.88;;;;;;;;;;4979624;28;20045;-49
2023/10/13 14:30:10;;;;;;;59.83;8.95;;;;;;;;;;4980160;28;20104;-54
2023/10/13 14:32:40;;;;;;;51.35;8.52;;;;;;;;;;4980746;28;20209;-58
2023/10/13 14:35:16;;;;;;;46.63;8.35;;;;;;;;;;4983602;28;20138;-59
2023/10/13 14:37:43;;;;;;;79.95;9.35;;;;;;;;;;4971148;28;20046;-54
2023/10/13 14:40:12;;;;;;;37.78;7.85;;;;;;;;;;4983695;28;20042;-52
2023/10/13 14:42:40;;;;;;;57.17;8.27;;;;;;;;;;4982614;28;20050;-57
2023/10/13 14:45:13;;;;;;;29.60;7.32;;;;;;;;;;4979996;28;20121;-58
2023/10/13 14:47:40;;;;;;;33.60;6.00;;;;;;;;;;4982577;28;20039;-56
2023/10/13 14:50:14;;;;;;;36.05;7.45;;;;;;;;;;4982374;28;20066;-58
2023/10/13 14:52:43;;;;;;;48.65;7.43;;;;;;;;;;4984367;28;20054;-48
2023/10/13 14:55:18;;;;;;;34.83;7.53;;;;;;;;;;4983586;28;20046;-56
2023/10/13 14:57:52;;;;;;;41.10;7.90;;;;;;;;;;4986841;28;20104;-58
2023/10/13 15:00:24;;;;;;;41.97;8.68;;;;;;;;;;4986293;28;20045;-57
2023/10/13 15:02:52;;;;;;;135.05;15.32;;;;;;;;;;4982903;28;20042;-58
2023/10/13 15:05:19;;;;;;;94.03;11.90;;;;;;;;;;4967426;28;20073;-56
2023/10/13 15:07:46;;;;;;;35.15;7.22;;;;;;;;;;4986777;28;20077;-57
2023/10/13 15:10:16;;;;;;;55.80;7.82;;;;;;;;;;4988696;28;20042;-56
2023/10/13 15:12:46;;;;;;;57.58;9.02;;;;;;;;;;4976994;28;20043;-55
2023/10/13 15:15:13;;;;;;;102.47;11.48;;;;;;;;;;4963976;28;20031;-54
2023/10/13 15:17:40;;;;;;;53.20;8.55;;;;;;;;;;4980227;28;20468;-59
2023/10/13 15:20:15;;;;;;;37.05;7.03;;;;;;;;;;4982379;28;20161;-55
2023/10/13 15:22:43;;;;;;;49.38;8.88;;;;;;;;;;4985972;28;20046;-55
2023/10/13 15:25:38;;;;;;;43.88;10.25;;;;;;;;;;4980966;28;20049;-55
2023/10/13 15:28:02;;;;;;;33.13;8.00;;;;;;;;;;4982789;28;20050;-56
2023/10/13 15:30:52;;;;;;;67.88;10.07;;;;;;;;;;4976792;28;20050;-55
2023/10/13 15:33:19;;;;;;;49.75;8.48;;;;;;;;;;4983360;28;20043;-56
2023/10/13 15:35:47;;;;;;;71.00;10.20;;;;;;;;;;4965226;28;20047;-55
2023/10/13 15:38:14;;;;;;;82.85;10.82;;;;;;;;;;4977947;28;20117;-58
2023/10/13 15:40:44;;;;;;;45.40;8.65;;;;;;;;;;4984363;28;20050;-51
2023/10/13 15:43:12;;;;;;;50.55;9.27;;;;;;;;;;4963397;28;20050;-48
2023/10/13 15:45:39;;;;;;;51.08;9.07;;;;;;;;;;4984597;28;20443;-54
2023/10/13 15:48:06;;;;;;;54.67;8.57;;;;;;;;;;4975445;28;20046;-55
2023/10/13 15:50:39;;;;;;;44.65;8.55;;;;;;;;;;4984760;28;20201;-56
2023/10/13 15:53:07;;;;;;;38.55;7.43;;;;;;;;;;4987161;28;20054;-56
2023/10/13 15:55:37;;;;;;;44.35;8.32;;;;;;;;;;4961425;28;20052;-55
2023/10/13 15:58:07;;;;;;;30.45;7.53;;;;;;;;;;4982990;28;20337;-54
2023/10/13 16:00:35;;;;;;;35.45;8.68;;;;;;;;;;4979141;28;20572;-55
2023/10/13 16:03:09;;;;;;;64.40;10.00;;;;;;;;;;4982185;28;20110;-58
2023/10/13 16:05:38;;;;;;;48.65;8.40;;;;;;;;;;4966000;28;20138;-56
2023/10/13 16:08:06;;;;;;;56.38;9.05;;;;;;;;;;4994211;28;20047;-55
2023/10/13 16:10:33;;;;;;;37.65;8.95;;;;;;;;;;4990458;28;20458;-55
2023/10/13 16:13:00;;;;;;;40.88;10.90;;;;;;;;;;4989445;28;20531;-54
2023/10/13 16:15:26;;;;;;;54.65;11.13;;;;;;;;;;4989173;28;20133;-57
2023/10/13 16:17:53;;;;;;;54.35;10.80;;;;;;;;;;4990305;28;20497;-56
2023/10/13 16:20:20;;;;;;;82.97;11.75;;;;;;;;;;4992074;28;20042;-51
2023/10/13 16:22:47;;;;;;;60.42;11.18;;;;;;;;;;4991300;28;20074;-56
2023/10/13 16:25:15;;;;;;;60.60;10.23;;;;;;;;;;4984449;28;20504;-48
2023/10/13 16:27:46;;;;;;;43.30;9.30;;;;;;;;;;4978172;28;20137;-56
2023/10/13 16:30:18;;;;;;;44.55;10.23;;;;;;;;;;4965340;28;20038;-49
2023/10/13 16:32:46;;;;;;;41.10;9.45;;;;;;;;;;4983198;28;20130;-57
2023/10/13 16:35:13;;;;;;;50.88;9.73;;;;;;;;;;4971866;28;20099;-56
2023/10/13 16:37:47;;;;;;;43.10;10.77;;;;;;;;;;4990351;28;20385;-57
2023/10/13 16:40:19;;;;;;;42.67;9.38;;;;;;;;;;4986417;28;20644;-53
2023/10/13 16:42:47;;;;;;;30.55;9.23;;;;;;;;;;4989272;28;20070;-56
2023/10/13 16:45:31;;;;;;;38.42;9.93;;;;;;;;;;4982143;28;20039;-60
2023/10/13 16:47:59;;;;;;;76.30;11.93;;;;;;;;;;4981451;28;20473;-57
2023/10/13 16:50:28;;;;;;;104.22;12.82;;;;;;;;;;4983729;28;20104;-58
2023/10/13 16:52:56;;;;;;;58.28;10.20;;;;;;;;;;4982597;28;20550;-56
2023/10/13 16:55:24;;;;;;;39.15;8.43;;;;;;;;;;4985752;28;20038;-54
2023/10/13 16:57:50;;;;;;;48.75;10.07;;;;;;;;;;4972583;28;20054;-53
2023/10/13 17:00:27;;;;;;;33.03;9.48;;;;;;;;;;4990638;28;20061;-55
2023/10/13 17:02:54;;;;;;;49.58;9.25;;;;;;;;;;4983336;28;20097;-52
2023/10/13 17:05:22;;;;;;;94.28;12.93;;;;;;;;;;4982227;28;20050;-51
2023/10/13 17:07:51;;;;;;;40.60;9.52;;;;;;;;;;4984181;28;20088;-55
2023/10/13 17:10:18;;;;;;;31.80;8.63;;;;;;;;;;4981991;28;20117;-53
2023/10/13 17:12:45;;;;;;;39.80;9.43;;;;;;;;;;4984525;28;20403;-51
2023/10/13 17:15:19;;;;;;;43.55;9.98;;;;;;;;;;4987800;28;20042;-54
2023/10/13 17:17:46;;;;;;;41.30;9.02;;;;;;;;;;4988619;28;20038;-56
2023/10/13 17:20:13;;;;;;;44.15;10.13;;;;;;;;;;4991425;28;20042;-54
2023/10/13 17:22:41;;;;;;;50.42;9.70;;;;;;;;;;4989830;28;20129;-49
2023/10/13 17:25:12;;;;;;;55.10;10.73;;;;;;;;;;4972146;28;20488;-58
2023/10/13 17:27:39;;;;;;;45.20;10.25;;;;;;;;;;4988558;28;20058;-54
2023/10/13 17:30:06;;;;;;;39.53;9.35;;;;;;;;;;4989264;28;20042;-55
2023/10/13 17:32:33;;;;;;;41.67;9.82;;;;;;;;;;4991738;28;20062;-52
2023/10/13 17:35:03;;;;;;;38.03;9.32;;;;;;;;;;4992432;28;20072;-59
2023/10/13 17:37:30;;;;;;;52.75;11.50;;;;;;;;;;4972466;28;20046;-48
2023/10/13 17:40:00;;;;;;;25.33;10.02;;;;;;;;;;4987214;28;20046;-56
2023/10/13 17:42:35;;;;;;;48.33;10.20;;;;;;;;;;4953699;28;20121;-56
2023/10/13 17:45:02;;;;;;;43.38;9.27;;;;;;;;;;4988758;28;20050;-52
2023/10/13 17:47:29;;;;;;;82.93;13.27;;;;;;;;;;4989725;28;20627;-53
2023/10/13 17:49:55;;;;;;;45.38;10.40;;;;;;;;;;4990361;28;20126;-58
2023/10/13 17:52:22;;;;;;;34.35;9.55;;;;;;;;;;4986991;28;20046;-54
2023/10/13 17:54:50;;;;;;;27.52;9.52;;;;;;;;;;4985266;28;20066;-55
2023/10/13 17:57:17;;;;;;;40.72;10.70;;;;;;;;;;4979292;28;20476;-55
2023/10/13 17:59:44;;;;;;;49.17;10.05;;;;;;;;;;4980258;28;20050;-56
2023/10/13 18:02:14;;;;;;;34.47;9.57;;;;;;;;;;4984046;28;20039;-48
2023/10/13 18:04:41;;;;;;;44.53;10.27;;;;;;;;;;4977575;28;20165;-49
2023/10/13 18:07:11;;;;;;;39.85;10.57;;;;;;;;;;4979050;28;20047;-57
2023/10/13 18:09:40;;;;;;;35.70;10.43;;;;;;;;;;4980629;28;20082;-55
2023/10/13 18:12:08;;;;;;;44.08;11.05;;;;;;;;;;4980248;28;20046;-50
2023/10/13 18:14:38;;;;;;;24.15;10.50;;;;;;;;;;4983148;28;20054;-52
2023/10/13 18:17:08;;;;;;;48.10;11.13;;;;;;;;;;4977950;28;20043;-54
2023/10/13 18:19:35;;;;;;;39.60;10.75;;;;;;;;;;4986075;28;20054;-53
2023/10/13 18:22:03;;;;;;;54.30;10.73;;;;;;;;;;4977789;28;20055;-51
2023/10/13 18:24:30;;;;;;;46.75;10.70;;;;;;;;;;4963030;28;20058;-53
2023/10/13 18:26:57;;;;;;;33.25;10.80;;;;;;;;;;4979529;28;20420;-58
2023/10/13 18:29:24;;;;;;;70.80;13.00;;;;;;;;;;4983333;28;20047;-58
2023/10/13 18:31:51;;;;;;;40.97;10.73;;;;;;;;;;4985192;28;20043;-56
2023/10/13 18:34:18;;;;;;;45.78;10.70;;;;;;;;;;4980772;28;20053;-53